Flight Track Log - Related Links

Times and Time Zones

All times are in EDT time to prevent confusion due to time zone crossing. See the N534QS flight status page for this flight to view local times or setup timezone preferences in your user account.

Time Position Orientation Groundspeed Altitude Reporting Facility
EDT Latitude Longitude Course Direction KTS MPH feet Rate Location/Type
Tue 06:37:02 PM 40.8333 -73.9000 235° Southwest 198 228 4,300  Level New York TRACON
Tue 06:38:02 PM 40.8833 -73.9333 333° Northwest 259 298 7,500 1,947 Climbing New York TRACON
Tue 06:38:56 PM 40.9333 -74.0000 315° West 264 304 8,000 261 Climbing New York TRACON
Tue 06:39:57 PM 40.9667 -74.0833 298° West 260 299 8,000  Level New York TRACON
Tue 06:40:56 PM 41.0167 -74.1500 315° West 248 285 8,000  Level New York TRACON
Tue 06:41:56 PM 41.0333 -74.2333 285° West 254 292 8,000  Level New York TRACON
Tue 06:42:00 PM 40.6949 -74.0294 235° Southwest  Level Estimated
Tue 06:42:51 PM 41.0500 -74.3167 285° West 249 287 8,000  Level New York TRACON
Tue 06:43:56 PM 41.0333 -74.4333 259° West 264 304 8,000  Level New York TRACON
Tue 06:44:56 PM 41.0000 -74.5000 236° Southwest 265 305 8,000  Level New York TRACON
Tue 06:45:51 PM 40.9333 -74.5333 201° Southwest 277 319 8,000 -365 Level New York TRACON
Tue 06:46:51 PM 40.8667 -74.5833 210° Southwest 277 319 7,300 -480 Descending New York TRACON
Tue 06:47:56 PM 40.7833 -74.6167 197° South 270 311 7,000 -333 Descending New York TRACON
Tue 06:48:57 PM 40.7167 -74.6500 201° Southwest 270 311 6,600 -833 Descending New York TRACON
Tue 06:51:32 PM 40.5500 -74.7500 205° Southwest 213 245 4,000 -921 Descending Philadelphia TRACON
Tue 06:52:32 PM 40.4833 -74.7500 180° South 226 260 3,300 -550 Descending Philadelphia TRACON
Tue 06:53:32 PM 40.4333 -74.7500 180° South 213 245 2,900 -500 Descending Philadelphia TRACON
Tue 06:54:32 PM 40.3833 -74.7333 166° South 203 234 2,300 -545 Descending Philadelphia TRACON
Tue 06:55:33 PM 40.3333 -74.7333 180° South 157 181 1,800 -694 Descending Philadelphia TRACON
Tue 06:56:33 PM 40.3000 -74.7667 217° Southwest 124 143 900 -900 Descending Philadelphia TRACON
Tue 06:58:00 PM 40.2767 -74.8135 75° East  Level Estimated
Tue 07:05:00 PM 40.2767 -74.8135 75° East  Level Estimated

Login

Don't have an account? Register now (free) for customized features, flight alerts, and more!